Time;durP1;ratioP1;P1;durP2;ratioP2;P2;SDS_P1;SDS_P2;PMS_P1;PMS_P2;Temp;Humidity;BMP_temperature;BMP_pressure;BME280_temperature;BME280_humidity;BME280_pressure;Samples;Min_cycle;Max_cycle;Signal;HPM_P1;HPM_P2
2023/01/25 00:01:44;;;;;;;15.68;9.85;;;5.50;99.90;;;;;;5071440;28;20028;-33
2023/01/25 00:04:09;;;;;;;16.27;10.63;;;5.60;99.90;;;;;;5070956;28;20016;-38
2023/01/25 00:06:35;;;;;;;15.15;10.23;;;5.70;99.90;;;;;;5070886;28;20024;-44
2023/01/25 00:09:01;;;;;;;16.42;9.52;;;5.90;99.90;;;;;;5071235;28;20021;-45
2023/01/25 00:11:27;;;;;;;13.90;10.30;;;6.20;99.90;;;;;;5071134;28;20074;-45
2023/01/25 00:13:53;;;;;;;14.63;9.40;;;6.30;99.90;;;;;;5071679;28;20024;-43
2023/01/25 00:16:19;;;;;;;14.68;9.95;;;6.40;99.90;;;;;;5071008;28;20056;-37
2023/01/25 00:18:45;;;;;;;13.98;9.77;;;6.30;99.90;;;;;;5071266;28;20055;-40
2023/01/25 00:21:15;;;;;;;15.50;10.07;;;6.30;99.90;;;;;;5071906;28;20519;-45
2023/01/25 00:23:41;;;;;;;16.08;10.00;;;6.30;99.90;;;;;;5071266;28;20021;-41
2023/01/25 00:26:06;;;;;;;14.98;9.60;;;6.20;99.90;;;;;;5071087;28;20029;-37
2023/01/25 00:28:32;;;;;;;14.60;10.40;;;6.10;99.90;;;;;;5071092;28;20385;-36
2023/01/25 00:30:59;;;;;;;14.95;10.05;;;6.00;99.90;;;;;;5071958;28;20124;-43
2023/01/25 00:33:37;;;;;;;14.15;10.00;;;6.00;99.90;;;;;;5071475;28;20017;-44
2023/01/25 00:36:22;;;;;;;16.77;10.10;;;5.80;99.90;;;;;;5070909;28;20110;-45
2023/01/25 00:38:47;;;;;;;15.98;10.25;;;5.80;99.90;;;;;;5071006;28;20027;-40
2023/01/25 00:41:13;;;;;;;15.73;10.45;;;5.80;99.90;;;;;;5071679;28;20119;-40
2023/01/25 00:43:38;;;;;;;15.70;10.50;;;5.70;99.90;;;;;;5071819;28;20024;-45
2023/01/25 00:46:04;;;;;;;15.55;9.43;;;5.70;99.90;;;;;;5070838;28;20025;-45
2023/01/25 00:48:30;;;;;;;15.02;9.68;;;5.70;99.90;;;;;;5070870;28;20030;-39
2023/01/25 00:51:00;;;;;;;14.60;9.38;;;5.60;99.90;;;;;;5071706;28;20024;-44
2023/01/25 00:53:26;;;;;;;15.73;10.35;;;5.60;99.90;;;;;;5071391;28;20025;-44
2023/01/25 00:55:52;;;;;;;15.60;10.90;;;5.60;99.90;;;;;;5070903;28;20404;-34
2023/01/25 00:58:18;;;;;;;15.82;10.27;;;5.60;99.90;;;;;;5070719;28;20513;-33
2023/01/25 01:00:43;;;;;;;15.07;9.95;;;5.60;99.90;;;;;;5071293;28;20032;-45
2023/01/25 01:03:09;;;;;;;16.30;10.18;;;5.50;99.90;;;;;;5070822;28;20060;-45
2023/01/25 01:05:35;;;;;;;16.52;10.57;;;5.60;99.90;;;;;;5071226;28;20453;-44
2023/01/25 01:08:01;;;;;;;16.30;10.52;;;5.80;99.90;;;;;;5071499;28;20035;-41
2023/01/25 01:10:27;;;;;;;15.70;9.63;;;6.10;99.90;;;;;;5070923;28;20029;-42
2023/01/25 01:12:52;;;;;;;13.80;9.50;;;6.30;99.90;;;;;;5070758;28;20483;-45
2023/01/25 01:15:18;;;;;;;16.63;9.25;;;6.40;99.90;;;;;;5071222;28;20029;-43
2023/01/25 01:17:43;;;;;;;13.93;9.85;;;6.40;99.90;;;;;;5074395;28;20023;-45
2023/01/25 01:20:10;;;;;;;14.23;9.25;;;6.30;99.90;;;;;;5074929;28;20506;-40
2023/01/25 01:22:36;;;;;;;16.55;10.30;;;6.30;99.90;;;;;;5075208;28;20490;-37
2023/01/25 01:25:02;;;;;;;17.05;10.05;;;6.20;99.90;;;;;;5074269;28;20043;-39
2023/01/25 01:27:27;;;;;;;16.52;9.98;;;6.10;99.90;;;;;;5074018;28;20040;-39
2023/01/25 01:29:53;;;;;;;15.90;10.68;;;6.00;99.90;;;;;;5074056;28;20452;-37
2023/01/25 01:32:18;;;;;;;15.00;9.57;;;6.00;99.90;;;;;;5074366;28;20429;-33
2023/01/25 01:34:44;;;;;;;15.85;10.48;;;5.90;99.90;;;;;;5074806;28;20024;-40
2023/01/25 01:37:09;;;;;;;16.10;10.88;;;5.90;99.90;;;;;;5073760;28;20024;-39
2023/01/25 01:39:35;;;;;;;16.90;10.75;;;5.80;99.90;;;;;;5074267;28;20054;-35
2023/01/25 01:42:01;;;;;;;18.27;10.63;;;5.80;99.90;;;;;;5074131;28;20031;-38
2023/01/25 01:44:47;;;;;;;16.83;10.93;;;5.70;99.90;;;;;;5074323;28;20048;-44
2023/01/25 01:47:39;;;;;;;16.05;10.25;;;5.70;99.90;;;;;;5074299;28;20764;-45
2023/01/25 01:50:17;;;;;;;15.77;10.40;;;5.70;99.90;;;;;;5073838;28;20035;-45
2023/01/25 01:52:43;;;;;;;19.00;11.00;;;5.60;99.90;;;;;;5073862;28;20031;-38
2023/01/25 01:55:17;;;;;;;16.00;10.32;;;5.60;99.90;;;;;;5073750;28;20020;-38
2023/01/25 01:57:46;;;;;;;16.80;10.82;;;5.60;99.90;;;;;;5073567;28;20032;-39
2023/01/25 02:00:17;;;;;;;18.95;11.20;;;5.60;99.90;;;;;;5073882;28;20032;-45
2023/01/25 02:02:42;;;;;;;16.25;10.63;;;5.60;99.90;;;;;;5073735;28;20544;-35
2023/01/25 02:05:13;;;;;;;16.73;11.00;;;5.60;99.90;;;;;;5073790;28;20032;-45
2023/01/25 02:07:39;;;;;;;18.15;11.38;;;5.80;99.90;;;;;;5073270;28;20033;-38
2023/01/25 02:10:10;;;;;;;17.35;11.40;;;6.00;99.90;;;;;;5073689;28;20036;-42
2023/01/25 02:12:37;;;;;;;16.33;10.00;;;6.30;99.90;;;;;;5073859;28;20039;-44
2023/01/25 02:15:04;;;;;;;15.65;10.02;;;6.50;99.90;;;;;;5073339;28;20032;-35
2023/01/25 02:17:35;;;;;;;14.88;10.40;;;6.50;99.90;;;;;;5074238;28;20028;-37
2023/01/25 02:20:25;;;;;;;16.92;10.50;;;6.50;99.90;;;;;;5073990;28;20540;-38
2023/01/25 02:22:55;;;;;;;17.48;11.10;;;6.40;99.90;;;;;;5073169;28;20037;-39
2023/01/25 02:25:21;;;;;;;17.67;10.88;;;6.30;99.90;;;;;;5073371;28;20040;-39
2023/01/25 02:28:15;;;;;;;16.42;10.60;;;6.20;99.90;;;;;;5073192;28;20089;-38
2023/01/25 02:30:42;;;;;;;16.05;10.90;;;6.10;99.90;;;;;;5072301;28;20040;-45
2023/01/25 02:33:08;;;;;;;15.38;9.90;;;6.00;99.90;;;;;;5072782;28;20048;-45
2023/01/25 02:35:41;;;;;;;17.90;10.95;;;6.00;99.90;;;;;;5072846;28;20016;-40
2023/01/25 02:38:10;;;;;;;16.90;10.80;;;5.90;99.90;;;;;;5072825;28;20085;-39
2023/01/25 02:40:44;;;;;;;17.40;10.63;;;5.80;99.90;;;;;;5072975;28;20132;-45
2023/01/25 02:43:09;;;;;;;16.58;10.57;;;5.80;99.90;;;;;;5072942;28;20493;-34
2023/01/25 02:45:35;;;;;;;17.88;11.73;;;5.80;99.90;;;;;;5072642;28;20041;-35
2023/01/25 02:48:01;;;;;;;15.65;10.27;;;5.70;99.90;;;;;;5072434;28;20552;-44
2023/01/25 02:50:26;;;;;;;16.52;10.35;;;5.70;99.90;;;;;;5072761;28;20043;-40
2023/01/25 02:52:52;;;;;;;17.65;10.88;;;5.60;99.90;;;;;;5072654;28;20039;-45
2023/01/25 02:55:17;;;;;;;18.55;11.55;;;5.60;99.90;;;;;;5073470;28;20021;-44
2023/01/25 02:57:43;;;;;;;16.33;11.18;;;5.60;99.90;;;;;;5072776;28;20032;-45
2023/01/25 03:00:09;;;;;;;15.93;11.25;;;5.60;99.90;;;;;;5072543;28;20466;-42
2023/01/25 03:02:35;;;;;;;18.08;11.40;;;5.60;99.90;;;;;;5072488;28;20036;-41
2023/01/25 03:05:01;;;;;;;16.65;11.05;;;5.60;99.90;;;;;;5073032;28;20029;-41
2023/01/25 03:07:26;;;;;;;16.48;11.10;;;5.80;99.90;;;;;;5072083;28;20024;-45
2023/01/25 03:09:52;;;;;;;16.77;10.93;;;6.00;99.90;;;;;;5072126;28;20075;-45
2023/01/25 03:12:18;;;;;;;14.52;9.52;;;6.20;99.90;;;;;;5072211;28;20028;-34
2023/01/25 03:14:43;;;;;;;13.50;9.45;;;6.40;99.90;;;;;;5072145;28;20085;-42
2023/01/25 03:17:09;;;;;;;15.77;10.10;;;6.50;99.90;;;;;;5071729;28;20032;-43
2023/01/25 03:19:35;;;;;;;16.52;10.48;;;6.40;99.90;;;;;;5071583;28;20104;-45
2023/01/25 03:22:01;;;;;;;18.67;11.07;;;6.40;99.90;;;;;;5072286;28;20095;-38
2023/01/25 03:24:26;;;;;;;15.98;10.77;;;6.30;99.90;;;;;;5071945;28;20046;-45
2023/01/25 03:27:10;;;;;;;16.98;10.88;;;6.20;99.90;;;;;;5071618;28;20051;-36
2023/01/25 03:29:36;;;;;;;16.42;10.23;;;6.10;99.90;;;;;;5071690;28;20046;-36
2023/01/25 03:32:03;;;;;;;14.90;10.65;;;6.10;99.90;;;;;;5071603;28;20025;-40
2023/01/25 03:34:29;;;;;;;15.13;10.40;;;6.00;99.90;;;;;;5070464;28;20016;-37
2023/01/25 03:36:54;;;;;;;15.90;10.20;;;5.90;99.90;;;;;;5071563;28;20130;-39
2023/01/25 03:39:20;;;;;;;14.88;10.70;;;5.90;99.90;;;;;;5071488;28;20092;-38
2023/01/25 03:41:45;;;;;;;16.00;10.32;;;5.80;99.90;;;;;;5071575;28;20502;-39
2023/01/25 03:44:11;;;;;;;18.33;10.73;;;5.80;99.90;;;;;;5071806;28;20032;-38
2023/01/25 03:46:38;;;;;;;16.95;11.00;;;5.70;99.90;;;;;;5071136;28;20313;-44
2023/01/25 03:49:04;;;;;;;16.20;10.65;;;5.70;99.90;;;;;;5072914;28;20021;-45
2023/01/25 03:51:29;;;;;;;17.58;11.15;;;5.70;99.90;;;;;;5071603;28;20151;-43
2023/01/25 03:53:55;;;;;;;14.10;10.23;;;5.70;99.90;;;;;;5071642;28;20082;-37
2023/01/25 03:56:20;;;;;;;15.55;10.18;;;5.60;99.90;;;;;;5071046;28;20460;-35
2023/01/25 03:58:46;;;;;;;16.27;10.75;;;5.60;99.90;;;;;;5071340;28;20032;-44
2023/01/25 04:01:12;;;;;;;14.50;9.95;;;5.60;99.90;;;;;;5071386;28;20504;-39
2023/01/25 04:03:38;;;;;;;14.30;10.35;;;5.60;99.90;;;;;;5071362;28;20112;-35
2023/01/25 04:06:05;;;;;;;15.60;10.18;;;5.70;99.90;;;;;;5072744;28;20060;-42
2023/01/25 04:08:31;;;;;;;16.25;10.20;;;5.90;99.90;;;;;;5071328;28;20028;-37
2023/01/25 04:11:01;;;;;;;16.02;10.73;;;6.10;99.90;;;;;;5071274;28;20032;-37
2023/01/25 04:13:26;;;;;;;17.00;10.52;;;6.30;99.90;;;;;;5071646;28;20108;-37
2023/01/25 04:15:52;;;;;;;17.00;10.65;;;6.50;99.90;;;;;;5071570;28;20095;-40
2023/01/25 04:18:18;;;;;;;15.77;9.95;;;6.60;99.90;;;;;;5071173;28;20441;-41
2023/01/25 04:20:44;;;;;;;16.38;10.52;;;6.50;99.90;;;;;;5072339;28;20024;-38
2023/01/25 04:23:11;;;;;;;15.30;9.82;;;6.50;99.90;;;;;;5071259;28;20045;-39
2023/01/25 04:25:37;;;;;;;15.13;10.30;;;6.40;99.90;;;;;;5071810;28;20107;-38
2023/01/25 04:28:03;;;;;;;15.07;10.00;;;6.30;99.90;;;;;;5071648;28;20021;-38
2023/01/25 04:30:29;;;;;;;13.95;9.73;;;6.20;99.90;;;;;;5071382;28;20077;-44
2023/01/25 04:32:54;;;;;;;15.75;10.20;;;6.10;99.90;;;;;;5071363;28;20021;-43
2023/01/25 04:35:20;;;;;;;13.93;8.80;;;6.00;99.90;;;;;;5071120;28;20063;-45
2023/01/25 04:37:56;;;;;;;16.50;10.38;;;6.00;99.90;;;;;;5070977;28;20493;-45
2023/01/25 04:40:22;;;;;;;16.30;10.07;;;5.90;99.90;;;;;;5072521;28;20115;-36
2023/01/25 04:42:48;;;;;;;16.60;9.93;;;5.90;99.90;;;;;;5072475;28;20111;-45
2023/01/25 04:45:13;;;;;;;17.38;10.90;;;5.80;99.90;;;;;;5071187;28;20024;-38
2023/01/25 04:47:39;;;;;;;15.68;10.38;;;5.70;99.90;;;;;;5070986;28;20099;-45
2023/01/25 04:50:05;;;;;;;15.98;10.50;;;5.70;99.90;;;;;;5070845;28;20505;-39
2023/01/25 04:52:31;;;;;;;15.25;9.80;;;5.70;99.90;;;;;;5074534;28;20024;-40
2023/01/25 04:54:56;;;;;;;15.57;10.15;;;5.70;99.90;;;;;;5074869;28;20023;-39
2023/01/25 04:57:22;;;;;;;17.35;10.85;;;5.60;99.90;;;;;;5074385;28;20394;-44
2023/01/25 04:59:47;;;;;;;14.82;9.90;;;5.60;99.90;;;;;;5074626;28;20086;-44
2023/01/25 05:02:13;;;;;;;19.25;10.00;;;5.60;99.90;;;;;;5074744;28;20120;-34
2023/01/25 05:04:39;;;;;;;18.27;10.77;;;5.60;99.90;;;;;;5074712;28;20028;-39
2023/01/25 05:07:04;;;;;;;17.23;10.38;;;5.80;99.90;;;;;;5075396;28;20028;-45
2023/01/25 05:09:30;;;;;;;18.60;10.15;;;6.00;99.90;;;;;;5074676;28;20031;-35
2023/01/25 05:11:56;;;;;;;13.02;9.05;;;6.20;99.90;;;;;;5074446;28;20467;-39
2023/01/25 05:14:21;;;;;;;15.73;9.60;;;6.50;99.90;;;;;;5074400;28;20052;-35
2023/01/25 05:16:47;;;;;;;13.88;9.45;;;6.50;99.90;;;;;;5074220;28;20017;-45
2023/01/25 05:19:13;;;;;;;14.13;9.38;;;6.50;99.90;;;;;;5074008;28;20389;-44
2023/01/25 05:21:56;;;;;;;15.88;9.63;;;6.50;99.90;;;;;;5074316;28;20021;-42
2023/01/25 05:24:23;;;;;;;13.23;8.60;;;6.40;99.90;;;;;;5074659;28;20394;-38
2023/01/25 05:27:02;;;;;;;17.30;10.27;;;6.30;99.90;;;;;;5074009;28;20034;-38
2023/01/25 05:29:35;;;;;;;15.07;9.77;;;6.20;99.90;;;;;;5074100;28;20103;-34
2023/01/25 05:32:16;;;;;;;14.35;10.05;;;6.10;99.90;;;;;;5074159;28;20393;-44
2023/01/25 05:34:42;;;;;;;15.90;10.27;;;6.10;99.90;;;;;;5074166;28;20112;-38
2023/01/25 05:37:10;;;;;;;15.15;9.90;;;6.00;99.90;;;;;;5074093;28;20100;-39
2023/01/25 05:39:36;;;;;;;15.95;10.00;;;5.90;99.90;;;;;;5074106;28;20098;-44
2023/01/25 05:42:02;;;;;;;15.52;9.45;;;5.90;99.90;;;;;;5073948;28;20482;-37
2023/01/25 05:44:28;;;;;;;14.77;9.43;;;5.80;99.90;;;;;;5073973;28;20490;-45
2023/01/25 05:46:53;;;;;;;14.75;9.60;;;5.80;99.90;;;;;;5073620;28;20037;-39
2023/01/25 05:49:19;;;;;;;17.00;10.07;;;5.80;99.90;;;;;;5073852;28;20021;-39
2023/01/25 05:51:45;;;;;;;16.55;9.95;;;5.70;99.90;;;;;;5073838;28;20031;-45
2023/01/25 05:54:13;;;;;;;16.02;9.85;;;5.70;99.90;;;;;;5073896;28;20092;-36
2023/01/25 05:56:39;;;;;;;13.82;9.40;;;5.60;99.90;;;;;;5073455;28;20554;-45
2023/01/25 05:59:05;;;;;;;16.15;9.98;;;5.60;99.90;;;;;;5074684;28;20103;-45
2023/01/25 06:01:32;;;;;;;13.32;9.38;;;5.60;99.90;;;;;;5073869;28;20072;-45
2023/01/25 06:03:57;;;;;;;14.98;9.18;;;5.60;99.90;;;;;;5073308;28;20071;-38
2023/01/25 06:06:23;;;;;;;12.73;8.60;;;5.70;99.90;;;;;;5074129;28;20070;-36
2023/01/25 06:08:49;;;;;;;15.82;9.88;;;5.90;99.90;;;;;;5073444;28;20070;-44
2023/01/25 06:11:18;;;;;;;14.50;9.60;;;6.20;99.90;;;;;;5073600;28;20513;-38
2023/01/25 06:13:44;;;;;;;16.92;10.00;;;6.40;99.90;;;;;;5073284;28;20036;-43
2023/01/25 06:16:10;;;;;;;14.88;9.73;;;6.50;99.90;;;;;;5073069;28;20021;-43
2023/01/25 06:18:36;;;;;;;14.70;9.02;;;6.50;99.90;;;;;;5074076;28;20023;-45
2023/01/25 06:21:03;;;;;;;15.68;9.27;;;6.50;99.90;;;;;;5073425;28;20052;-41
2023/01/25 06:23:29;;;;;;;13.63;9.40;;;6.40;99.90;;;;;;5073265;28;20402;-43
2023/01/25 06:26:05;;;;;;;14.70;9.40;;;6.30;99.90;;;;;;5072966;28;20035;-38
2023/01/25 06:28:33;;;;;;;16.95;9.00;;;6.30;99.90;;;;;;5073605;28;20506;-45
2023/01/25 06:31:13;;;;;;;13.65;9.15;;;6.20;99.90;;;;;;5073321;28;20082;-40
2023/01/25 06:33:40;;;;;;;12.98;9.40;;;6.10;99.90;;;;;;5073521;28;20024;-44
2023/01/25 06:36:10;;;;;;;13.65;9.27;;;6.00;99.90;;;;;;5072732;28;20025;-40
2023/01/25 06:38:36;;;;;;;12.68;8.75;;;6.00;99.90;;;;;;5073244;28;20029;-45
2023/01/25 06:41:03;;;;;;;12.80;8.93;;;5.90;99.90;;;;;;5072711;28;20077;-40
2023/01/25 06:43:30;;;;;;;16.23;9.65;;;5.80;99.90;;;;;;5072875;28;20020;-44
2023/01/25 06:46:00;;;;;;;14.63;9.27;;;5.80;99.90;;;;;;5073263;28;20060;-35
2023/01/25 06:48:27;;;;;;;12.38;8.95;;;5.80;99.90;;;;;;5072619;28;20021;-43
2023/01/25 06:50:54;;;;;;;12.98;8.95;;;5.80;99.90;;;;;;5072642;28;20024;-45
2023/01/25 06:53:19;;;;;;;12.35;8.90;;;5.70;99.90;;;;;;5072565;28;20123;-42
2023/01/25 06:55:45;;;;;;;15.73;10.05;;;5.70;99.90;;;;;;5072389;28;20143;-35
2023/01/25 06:58:11;;;;;;;14.57;9.80;;;5.70;99.90;;;;;;5072312;28;20032;-41
2023/01/25 07:00:36;;;;;;;14.60;9.30;;;5.60;99.90;;;;;;5073521;28;20017;-40
2023/01/25 07:03:02;;;;;;;12.80;8.93;;;5.60;99.90;;;;;;5072757;28;20485;-40
2023/01/25 07:05:27;;;;;;;14.63;9.77;;;5.70;99.90;;;;;;5072443;28;20025;-45
2023/01/25 07:07:53;;;;;;;13.10;9.15;;;5.80;99.90;;;;;;5072261;28;20486;-36
2023/01/25 07:10:19;;;;;;;12.60;8.35;;;6.10;99.90;;;;;;5072399;28;20034;-34
2023/01/25 07:12:44;;;;;;;12.60;8.73;;;6.30;99.90;;;;;;5072249;28;20028;-41
2023/01/25 07:15:10;;;;;;;13.05;8.70;;;6.50;99.90;;;;;;5072083;28;20023;-45
2023/01/25 07:17:35;;;;;;;14.60;9.20;;;6.50;99.90;;;;;;5071923;28;20539;-36
2023/01/25 07:20:01;;;;;;;11.80;8.23;;;6.50;99.90;;;;;;5072210;28;20058;-41
2023/01/25 07:22:27;;;;;;;13.18;8.93;;;6.50;99.90;;;;;;5072130;28;20021;-44
2023/01/25 07:24:52;;;;;;;14.75;8.95;;;6.40;99.90;;;;;;5072009;28;20032;-45
2023/01/25 07:27:18;;;;;;;24.50;12.73;;;6.30;99.90;;;;;;5071738;28;20097;-35
2023/01/25 07:29:44;;;;;;;28.30;14.00;;;6.20;99.90;;;;;;5072108;28;20048;-43
2023/01/25 07:32:13;;;;;;;21.15;13.13;;;6.00;99.90;;;;;;5071909;28;20028;-42
2023/01/25 07:34:38;;;;;;;24.80;14.20;;;5.80;99.90;;;;;;5072438;28;20024;-43
2023/01/25 07:37:04;;;;;;;28.05;15.00;;;5.70;99.90;;;;;;5071502;28;20032;-44
2023/01/25 07:39:30;;;;;;;23.77;14.23;;;5.60;99.90;;;;;;5071626;28;20073;-42
2023/01/25 07:41:55;;;;;;;23.38;14.27;;;5.60;99.90;;;;;;5071770;28;20493;-33
2023/01/25 07:44:21;;;;;;;21.85;13.75;;;5.60;99.90;;;;;;5071756;28;20040;-43
2023/01/25 07:46:46;;;;;;;20.10;13.00;;;5.50;99.90;;;;;;5071509;28;20363;-43
2023/01/25 07:49:12;;;;;;;24.10;13.85;;;5.50;99.90;;;;;;5071610;28;20040;-43
2023/01/25 07:51:38;;;;;;;23.42;15.20;;;5.50;99.90;;;;;;5071542;28;20433;-40
2023/01/25 07:54:04;;;;;;;22.95;14.93;;;5.50;99.90;;;;;;5071491;28;20035;-34
2023/01/25 07:56:32;;;;;;;23.33;14.50;;;5.40;99.90;;;;;;5071290;28;20025;-35
2023/01/25 07:59:01;;;;;;;22.35;13.75;;;5.40;99.90;;;;;;5071481;28;20485;-38
2023/01/25 08:01:29;;;;;;;22.67;12.68;;;5.40;99.90;;;;;;5071417;28;20048;-43
2023/01/25 08:03:55;;;;;;;20.98;12.60;;;5.40;99.90;;;;;;5071576;28;20453;-40
2023/01/25 08:06:34;;;;;;;21.27;13.50;;;5.40;99.90;;;;;;5071232;28;20025;-44
2023/01/25 08:09:02;;;;;;;22.27;12.63;;;5.40;99.90;;;;;;5071356;28;20108;-44
2023/01/25 08:11:30;;;;;;;21.48;12.57;;;5.40;99.90;;;;;;5071267;28;20406;-43
2023/01/25 08:13:56;;;;;;;22.30;13.60;;;5.40;99.90;;;;;;5071349;28;20048;-39
2023/01/25 08:16:24;;;;;;;23.80;13.27;;;5.40;99.90;;;;;;5070907;28;20426;-42
2023/01/25 08:18:52;;;;;;;21.30;12.98;;;5.40;99.90;;;;;;5071242;28;20047;-34
2023/01/25 08:21:18;;;;;;;20.88;12.20;;;5.40;99.90;;;;;;5071722;28;20031;-37
2023/01/25 08:23:44;;;;;;;19.75;12.43;;;5.40;99.90;;;;;;5071514;28;20020;-44
2023/01/25 08:26:12;;;;;;;20.58;12.80;;;5.40;99.90;;;;;;5070409;28;20542;-41
2023/01/25 08:28:38;;;;;;;18.20;12.40;;;5.40;99.90;;;;;;5071100;28;20089;-42
2023/01/25 08:31:07;;;;;;;22.60;12.90;;;5.40;99.90;;;;;;5071006;28;20032;-41
2023/01/25 08:33:33;;;;;;;21.80;12.73;;;5.40;99.90;;;;;;5071608;28;20021;-38
2023/01/25 08:35:59;;;;;;;19.55;11.50;;;5.40;99.90;;;;;;5070958;28;20044;-44
2023/01/25 08:38:25;;;;;;;20.30;12.60;;;5.40;99.90;;;;;;5070976;28;20376;-44
2023/01/25 08:40:51;;;;;;;20.55;12.35;;;5.40;99.90;;;;;;5071092;28;20032;-39
2023/01/25 08:43:17;;;;;;;22.42;13.02;;;5.40;99.90;;;;;;5070968;28;20419;-35
2023/01/25 08:45:42;;;;;;;19.75;11.73;;;5.40;99.90;;;;;;5071078;28;20110;-37
2023/01/25 08:48:08;;;;;;;19.02;12.77;;;5.40;99.90;;;;;;5070857;28;20471;-41
2023/01/25 08:50:33;;;;;;;19.40;13.00;;;5.40;99.90;;;;;;5070998;28;20068;-34
2023/01/25 08:52:59;;;;;;;17.20;11.15;;;5.40;99.90;;;;;;5071215;28;20028;-37
2023/01/25 08:55:25;;;;;;;18.45;12.25;;;5.40;99.90;;;;;;5070844;28;20386;-43
2023/01/25 08:57:50;;;;;;;15.70;11.20;;;5.40;99.90;;;;;;5071013;28;20032;-42
2023/01/25 09:00:16;;;;;;;19.95;12.48;;;5.40;99.90;;;;;;5071494;28;20025;-44
2023/01/25 09:02:43;;;;;;;17.35;11.50;;;5.40;99.90;;;;;;5071580;28;20254;-39
2023/01/25 09:05:09;;;;;;;18.73;11.85;;;5.40;99.90;;;;;;5070863;28;20032;-42
2023/01/25 09:07:37;;;;;;;18.25;11.18;;;5.40;99.90;;;;;;5070519;28;20024;-42
2023/01/25 09:10:07;;;;;;;18.58;12.10;;;5.40;99.90;;;;;;5071020;28;20032;-39
2023/01/25 09:12:34;;;;;;;17.05;11.10;;;5.40;99.90;;;;;;5070679;28;20029;-40
2023/01/25 09:15:00;;;;;;;17.77;10.77;;;5.40;99.90;;;;;;5071715;28;20016;-36
2023/01/25 09:17:26;;;;;;;18.25;11.25;;;5.40;99.90;;;;;;5071136;28;20021;-44
2023/01/25 09:19:51;;;;;;;18.17;11.48;;;5.40;99.90;;;;;;5070648;28;20021;-42
2023/01/25 09:22:17;;;;;;;16.80;10.45;;;5.40;99.90;;;;;;5070604;28;20020;-37
2023/01/25 09:24:43;;;;;;;17.45;10.63;;;5.40;99.90;;;;;;5070611;28;20024;-37
2023/01/25 09:27:09;;;;;;;16.85;10.70;;;5.40;99.90;;;;;;5070293;28;20028;-34
2023/01/25 09:29:35;;;;;;;16.92;10.90;;;5.40;99.90;;;;;;5070365;28;20025;-44
2023/01/25 09:32:00;;;;;;;17.08;10.70;;;5.40;99.90;;;;;;5070540;28;20078;-44
2023/01/25 09:34:26;;;;;;;18.27;11.30;;;5.40;99.90;;;;;;5070551;28;20027;-43
2023/01/25 09:36:51;;;;;;;17.52;10.70;;;5.40;99.90;;;;;;5069212;28;20119;-39
2023/01/25 09:39:17;;;;;;;16.27;10.23;;;5.40;99.90;;;;;;5073659;28;20025;-37
2023/01/25 09:42:07;;;;;;;18.20;11.18;;;5.40;99.90;;;;;;5073942;28;20017;-34
2023/01/25 09:44:45;;;;;;;17.05;11.02;;;5.40;99.90;;;;;;5074685;28;20037;-44
2023/01/25 09:47:22;;;;;;;16.52;10.60;;;5.40;99.90;;;;;;5073748;28;20035;-42
2023/01/25 09:50:25;;;;;;;14.38;9.98;;;5.40;99.90;;;;;;5073768;28;20024;-43
2023/01/25 09:53:18;;;;;;;15.05;10.18;;;5.40;99.90;;;;;;5073821;28;20020;-36
2023/01/25 09:55:49;;;;;;;16.90;10.45;;;5.40;99.90;;;;;;5073608;28;20100;-41
2023/01/25 09:58:20;;;;;;;14.27;10.07;;;5.40;99.90;;;;;;5073469;28;20041;-36
2023/01/25 10:00:51;;;;;;;15.75;10.45;;;5.40;99.90;;;;;;5074236;28;20063;-35
2023/01/25 10:03:23;;;;;;;31.98;20.70;;;5.40;99.90;;;;;;5074333;28;20077;-39
2023/01/25 10:05:56;;;;;;;34.28;21.33;;;5.30;99.90;;;;;;5074112;28;20039;-38
2023/01/25 10:08:42;;;;;;;35.90;21.80;;;5.20;99.90;;;;;;5073445;28;20111;-35
2023/01/25 10:11:22;;;;;;;34.53;21.27;;;5.20;99.90;;;;;;5073436;28;20028;-36
2023/01/25 10:13:48;;;;;;;32.78;20.15;;;5.20;99.90;;;;;;5073686;28;20028;-36
2023/01/25 10:16:28;;;;;;;30.90;19.23;;;5.20;99.90;;;;;;5073216;28;20021;-36
2023/01/25 10:18:57;;;;;;;30.85;20.67;;;5.20;99.90;;;;;;5073316;28;20028;-39
2023/01/25 10:21:25;;;;;;;31.05;20.80;;;5.30;99.90;;;;;;5073147;28;20512;-38
2023/01/25 10:24:12;;;;;;;32.15;20.58;;;5.30;99.90;;;;;;5073179;28;20443;-40
2023/01/25 10:26:41;;;;;;;30.70;19.60;;;5.30;99.90;;;;;;5073020;28;20030;-38
2023/01/25 10:29:19;;;;;;;30.83;19.27;;;5.30;99.90;;;;;;5073120;28;20025;-38
2023/01/25 10:31:52;;;;;;;30.83;19.38;;;5.30;99.90;;;;;;5072931;28;20066;-39
2023/01/25 10:34:42;;;;;;;31.73;19.45;;;5.30;99.90;;;;;;5073044;28;20020;-38
2023/01/25 10:37:34;;;;;;;31.92;18.58;;;5.30;99.90;;;;;;5072960;28;20025;-37
2023/01/25 10:40:22;;;;;;;30.80;19.67;;;5.40;99.90;;;;;;5073448;28;20036;-38
2023/01/25 10:43:01;;;;;;;28.70;17.88;;;5.40;99.90;;;;;;5072948;28;20469;-40
2023/01/25 10:45:27;;;;;;;30.08;18.70;;;5.40;99.90;;;;;;5072917;28;20031;-37
2023/01/25 10:48:02;;;;;;;28.30;18.58;;;5.40;99.90;;;;;;5072550;28;20025;-37
2023/01/25 10:50:42;;;;;;;26.80;17.27;;;5.40;99.90;;;;;;5072062;28;20090;-40
2023/01/25 10:53:32;;;;;;;26.42;17.70;;;5.40;99.90;;;;;;5072682;28;20368;-35
2023/01/25 10:56:00;;;;;;;27.80;17.20;;;5.40;99.90;;;;;;5072472;28;20548;-38
2023/01/25 10:58:32;;;;;;;27.70;17.27;;;5.40;99.90;;;;;;5072355;28;20086;-39
2023/01/25 11:00:58;;;;;;;27.60;18.05;;;5.40;99.90;;;;;;5072394;28;20016;-40
2023/01/25 11:03:40;;;;;;;27.33;17.90;;;5.50;99.90;;;;;;5072610;28;20033;-39
2023/01/25 11:06:08;;;;;;;25.15;16.20;;;5.40;99.90;;;;;;5072134;28;20044;-38
2023/01/25 11:08:35;;;;;;;23.98;16.27;;;5.50;99.90;;;;;;5072279;28;20020;-40
2023/01/25 11:11:22;;;;;;;26.20;16.48;;;5.50;99.90;;;;;;5072237;28;20070;-40
2023/01/25 11:13:48;;;;;;;23.98;16.40;;;5.50;99.90;;;;;;5072339;28;20025;-40
2023/01/25 11:16:40;;;;;;;24.20;16.20;;;5.50;99.90;;;;;;5072167;28;20112;-39
2023/01/25 11:19:31;;;;;;;23.73;15.90;;;5.50;99.90;;;;;;5071938;28;20028;-36
2023/01/25 11:21:57;;;;;;;24.73;16.05;;;5.50;99.90;;;;;;5072841;28;20032;-40
2023/01/25 11:24:29;;;;;;;26.95;16.50;;;5.50;99.90;;;;;;5072253;28;20437;-40
2023/01/25 11:27:19;;;;;;;23.80;15.63;;;5.50;99.90;;;;;;5071894;28;20032;-41
2023/01/25 11:29:45;;;;;;;23.42;15.75;;;5.50;99.90;;;;;;5071855;28;20024;-42
2023/01/25 11:32:21;;;;;;;23.30;15.10;;;5.50;99.90;;;;;;5071828;28;20020;-36
2023/01/25 11:34:48;;;;;;;21.90;14.65;;;5.50;99.90;;;;;;5071771;28;20033;-45
2023/01/25 11:37:40;;;;;;;22.40;14.77;;;5.50;99.90;;;;;;5071580;28;20467;-42
2023/01/25 11:40:30;;;;;;;23.10;14.80;;;5.50;99.90;;;;;;5071728;28;20470;-45
2023/01/25 11:42:57;;;;;;;22.17;14.98;;;5.50;99.90;;;;;;5072106;28;20551;-45
2023/01/25 11:45:37;;;;;;;21.95;13.85;;;5.50;99.90;;;;;;5071648;28;20052;-40
2023/01/25 11:48:15;;;;;;;21.55;14.40;;;5.50;99.90;;;;;;5071530;28;20028;-38
2023/01/25 11:50:49;;;;;;;21.48;13.88;;;5.50;99.90;;;;;;5071505;28;20036;-38
2023/01/25 11:53:35;;;;;;;18.17;12.93;;;5.50;99.90;;;;;;5073488;28;20460;-38
2023/01/25 11:56:16;;;;;;;22.17;13.77;;;5.50;99.90;;;;;;5071650;28;20040;-39
2023/01/25 11:59:09;;;;;;;20.73;13.70;;;5.50;99.90;;;;;;5071399;28;20042;-39
2023/01/25 12:02:16;;;;;;;20.33;13.27;;;5.50;99.90;;;;;;5070759;28;20027;-45
2023/01/25 12:05:15;;;;;;;20.25;13.30;;;5.50;99.90;;;;;;5073060;28;20119;-42
2023/01/25 12:07:45;;;;;;;20.83;13.82;;;5.50;99.90;;;;;;5071172;28;20028;-45
2023/01/25 12:10:24;;;;;;;18.33;12.25;;;5.50;99.90;;;;;;5072162;28;20028;-40
2023/01/25 12:13:31;;;;;;;20.65;13.15;;;5.50;99.90;;;;;;5073155;28;20013;-42
2023/01/25 12:16:18;;;;;;;19.55;12.68;;;5.50;99.90;;;;;;5068564;28;20032;-40
2023/01/25 12:18:49;;;;;;;20.30;13.07;;;5.50;99.90;;;;;;5069765;28;20108;-40
2023/01/25 12:22:03;;;;;;;20.10;12.77;;;5.50;99.90;;;;;;5071481;28;20029;-38
2023/01/25 12:24:41;;;;;;;18.17;11.85;;;5.50;99.90;;;;;;5070426;28;20029;-45
2023/01/25 12:27:06;;;;;;;17.70;12.65;;;5.50;99.90;;;;;;5071297;28;20020;-44
2023/01/25 12:29:43;;;;;;;18.02;12.65;;;5.50;99.90;;;;;;5071285;28;20055;-42
2023/01/25 12:32:40;;;;;;;17.13;12.20;;;5.50;99.90;;;;;;5071136;28;20036;-37
2023/01/25 12:35:23;;;;;;;16.77;11.68;;;5.50;99.90;;;;;;5072255;28;20035;-40
2023/01/25 12:37:54;;;;;;;20.77;12.55;;;5.50;99.90;;;;;;5072380;28;20035;-41
2023/01/25 12:40:54;;;;;;;18.80;12.60;;;5.50;99.90;;;;;;5071050;28;20029;-36
2023/01/25 12:43:27;;;;;;;20.25;12.93;;;5.50;99.90;;;;;;5071691;28;20433;-39
2023/01/25 12:45:54;;;;;;;18.40;12.63;;;5.50;99.90;;;;;;5071180;28;20394;-39
2023/01/25 12:48:33;;;;;;;20.60;11.95;;;5.50;99.90;;;;;;5070904;28;20025;-45
2023/01/25 12:50:59;;;;;;;17.42;12.13;;;5.50;99.90;;;;;;5071325;28;20032;-42
2023/01/25 12:54:05;;;;;;;18.63;12.65;;;5.50;99.90;;;;;;5070855;28;20081;-45